sensor_id;sensor_type;location;lat;lon;timestamp;P1;durP1;ratioP1;P2;durP2;ratioP2
14096;SDS011;7125;48.106;11.544;2023-08-06T00:01:54;4.88;;;4.38;;
14096;SDS011;7125;48.106;11.544;2023-08-06T00:04:20;4.82;;;4.43;;
14096;SDS011;7125;48.106;11.544;2023-08-06T00:06:47;5.38;;;4.93;;
14096;SDS011;7125;48.106;11.544;2023-08-06T00:09:14;5.88;;;5.38;;
14096;SDS011;7125;48.106;11.544;2023-08-06T00:11:41;6.00;;;4.55;;
14096;SDS011;7125;48.106;11.544;2023-08-06T00:14:09;5.88;;;5.35;;
14096;SDS011;7125;48.106;11.544;2023-08-06T00:16:37;5.28;;;4.80;;
14096;SDS011;7125;48.106;11.544;2023-08-06T00:19:04;5.15;;;4.65;;
14096;SDS011;7125;48.106;11.544;2023-08-06T00:21:31;6.03;;;4.70;;
14096;SDS011;7125;48.106;11.544;2023-08-06T00:24:00;5.75;;;5.25;;
14096;SDS011;7125;48.106;11.544;2023-08-06T00:26:27;6.05;;;5.20;;
14096;SDS011;7125;48.106;11.544;2023-08-06T00:28:54;5.88;;;5.22;;
14096;SDS011;7125;48.106;11.544;2023-08-06T00:31:21;7.05;;;5.10;;
14096;SDS011;7125;48.106;11.544;2023-08-06T00:33:49;5.90;;;4.40;;
14096;SDS011;7125;48.106;11.544;2023-08-06T00:36:17;4.80;;;4.40;;
14096;SDS011;7125;48.106;11.544;2023-08-06T00:38:44;4.50;;;4.10;;
14096;SDS011;7125;48.106;11.544;2023-08-06T00:41:10;4.80;;;4.40;;
14096;SDS011;7125;48.106;11.544;2023-08-06T00:43:37;5.75;;;4.78;;
14096;SDS011;7125;48.106;11.544;2023-08-06T00:46:04;4.53;;;4.00;;
14096;SDS011;7125;48.106;11.544;2023-08-06T00:48:33;4.65;;;4.25;;
14096;SDS011;7125;48.106;11.544;2023-08-06T00:51:01;8.88;;;5.55;;
14096;SDS011;7125;48.106;11.544;2023-08-06T00:53:28;4.88;;;4.00;;
14096;SDS011;7125;48.106;11.544;2023-08-06T00:55:56;5.75;;;4.20;;
14096;SDS011;7125;48.106;11.544;2023-08-06T00:58:24;4.90;;;4.00;;
14096;SDS011;7125;48.106;11.544;2023-08-06T01:00:52;6.47;;;4.53;;
14096;SDS011;7125;48.106;11.544;2023-08-06T01:03:19;5.63;;;4.80;;
14096;SDS011;7125;48.106;11.544;2023-08-06T01:05:47;5.13;;;4.72;;
14096;SDS011;7125;48.106;11.544;2023-08-06T01:08:23;5.30;;;4.80;;
14096;SDS011;7125;48.106;11.544;2023-08-06T01:11:03;6.38;;;5.25;;
14096;SDS011;7125;48.106;11.544;2023-08-06T01:13:41;5.57;;;5.03;;
14096;SDS011;7125;48.106;11.544;2023-08-06T01:16:13;6.05;;;5.35;;
14096;SDS011;7125;48.106;11.544;2023-08-06T01:18:43;7.07;;;5.57;;
14096;SDS011;7125;48.106;11.544;2023-08-06T01:21:13;6.00;;;5.40;;
14096;SDS011;7125;48.106;11.544;2023-08-06T01:23:58;7.45;;;6.55;;
14096;SDS011;7125;48.106;11.544;2023-08-06T01:26:26;7.45;;;6.72;;
14096;SDS011;7125;48.106;11.544;2023-08-06T01:29:03;6.65;;;5.65;;
14096;SDS011;7125;48.106;11.544;2023-08-06T01:31:36;6.03;;;5.43;;
14096;SDS011;7125;48.106;11.544;2023-08-06T01:34:06;7.90;;;5.70;;
14096;SDS011;7125;48.106;11.544;2023-08-06T01:36:37;7.20;;;6.18;;
14096;SDS011;7125;48.106;11.544;2023-08-06T01:39:04;8.35;;;6.32;;
14096;SDS011;7125;48.106;11.544;2023-08-06T01:41:31;7.72;;;6.10;;
14096;SDS011;7125;48.106;11.544;2023-08-06T01:43:58;10.27;;;6.68;;
14096;SDS011;7125;48.106;11.544;2023-08-06T01:46:26;7.18;;;5.80;;
14096;SDS011;7125;48.106;11.544;2023-08-06T01:48:53;7.90;;;5.97;;
14096;SDS011;7125;48.106;11.544;2023-08-06T01:51:19;6.68;;;5.97;;
14096;SDS011;7125;48.106;11.544;2023-08-06T01:53:48;8.20;;;6.40;;
14096;SDS011;7125;48.106;11.544;2023-08-06T01:56:14;8.57;;;5.80;;
14096;SDS011;7125;48.106;11.544;2023-08-06T01:58:41;5.40;;;4.75;;
14096;SDS011;7125;48.106;11.544;2023-08-06T02:01:08;6.13;;;5.22;;
14096;SDS011;7125;48.106;11.544;2023-08-06T02:03:35;6.40;;;5.07;;
14096;SDS011;7125;48.106;11.544;2023-08-06T02:06:02;4.93;;;4.53;;
14096;SDS011;7125;48.106;11.544;2023-08-06T02:08:29;5.97;;;5.22;;
14096;SDS011;7125;48.106;11.544;2023-08-06T02:10:57;8.70;;;4.75;;
14096;SDS011;7125;48.106;11.544;2023-08-06T02:13:25;6.05;;;4.25;;
14096;SDS011;7125;48.106;11.544;2023-08-06T02:15:52;5.60;;;4.45;;
14096;SDS011;7125;48.106;11.544;2023-08-06T02:18:19;6.10;;;5.53;;
14096;SDS011;7125;48.106;11.544;2023-08-06T02:20:54;5.47;;;3.50;;
14096;SDS011;7125;48.106;11.544;2023-08-06T02:23:22;4.10;;;3.70;;
14096;SDS011;7125;48.106;11.544;2023-08-06T02:25:57;8.00;;;4.22;;
14096;SDS011;7125;48.106;11.544;2023-08-06T02:28:25;4.03;;;3.65;;
14096;SDS011;7125;48.106;11.544;2023-08-06T02:30:51;3.67;;;3.40;;
14096;SDS011;7125;48.106;11.544;2023-08-06T02:33:18;3.90;;;3.58;;
14096;SDS011;7125;48.106;11.544;2023-08-06T02:35:46;4.30;;;3.90;;
14096;SDS011;7125;48.106;11.544;2023-08-06T02:38:13;4.47;;;4.07;;
14096;SDS011;7125;48.106;11.544;2023-08-06T02:40:44;3.97;;;3.63;;
14096;SDS011;7125;48.106;11.544;2023-08-06T02:43:13;5.70;;;4.25;;
14096;SDS011;7125;48.106;11.544;2023-08-06T02:45:40;4.88;;;4.38;;
14096;SDS011;7125;48.106;11.544;2023-08-06T02:48:07;6.68;;;4.28;;
14096;SDS011;7125;48.106;11.544;2023-08-06T02:50:37;4.15;;;3.75;;
14096;SDS011;7125;48.106;11.544;2023-08-06T02:53:05;4.85;;;3.90;;
14096;SDS011;7125;48.106;11.544;2023-08-06T02:55:32;4.07;;;3.78;;
14096;SDS011;7125;48.106;11.544;2023-08-06T02:58:00;3.92;;;3.58;;
14096;SDS011;7125;48.106;11.544;2023-08-06T03:00:33;4.35;;;3.95;;
14096;SDS011;7125;48.106;11.544;2023-08-06T03:03:02;3.88;;;3.45;;
14096;SDS011;7125;48.106;11.544;2023-08-06T03:05:50;3.72;;;3.42;;
14096;SDS011;7125;48.106;11.544;2023-08-06T03:08:22;3.78;;;3.30;;
14096;SDS011;7125;48.106;11.544;2023-08-06T03:10:50;5.63;;;3.83;;
14096;SDS011;7125;48.106;11.544;2023-08-06T03:13:18;4.85;;;3.50;;
14096;SDS011;7125;48.106;11.544;2023-08-06T03:15:52;4.00;;;3.58;;
14096;SDS011;7125;48.106;11.544;2023-08-06T03:18:20;3.35;;;3.03;;
14096;SDS011;7125;48.106;11.544;2023-08-06T03:20:48;3.78;;;3.47;;
14096;SDS011;7125;48.106;11.544;2023-08-06T03:23:16;6.00;;;3.83;;
14096;SDS011;7125;48.106;11.544;2023-08-06T03:25:43;3.53;;;3.30;;
14096;SDS011;7125;48.106;11.544;2023-08-06T03:28:12;3.95;;;3.50;;
14096;SDS011;7125;48.106;11.544;2023-08-06T03:30:41;7.30;;;3.72;;
14096;SDS011;7125;48.106;11.544;2023-08-06T03:33:12;6.47;;;2.97;;
14096;SDS011;7125;48.106;11.544;2023-08-06T03:35:39;4.38;;;3.20;;
14096;SDS011;7125;48.106;11.544;2023-08-06T03:38:06;3.70;;;3.35;;
14096;SDS011;7125;48.106;11.544;2023-08-06T03:40:34;2.97;;;2.70;;
14096;SDS011;7125;48.106;11.544;2023-08-06T03:43:02;3.35;;;2.65;;
14096;SDS011;7125;48.106;11.544;2023-08-06T03:45:29;3.45;;;3.15;;
14096;SDS011;7125;48.106;11.544;2023-08-06T03:47:56;4.32;;;2.95;;
14096;SDS011;7125;48.106;11.544;2023-08-06T03:50:24;4.43;;;3.20;;
14096;SDS011;7125;48.106;11.544;2023-08-06T03:52:51;3.17;;;2.97;;
14096;SDS011;7125;48.106;11.544;2023-08-06T03:55:20;3.40;;;2.90;;
14096;SDS011;7125;48.106;11.544;2023-08-06T03:57:49;2.67;;;2.47;;
14096;SDS011;7125;48.106;11.544;2023-08-06T04:00:16;3.20;;;2.83;;
14096;SDS011;7125;48.106;11.544;2023-08-06T04:02:49;3.40;;;3.07;;
14096;SDS011;7125;48.106;11.544;2023-08-06T04:05:16;3.27;;;2.97;;
14096;SDS011;7125;48.106;11.544;2023-08-06T04:07:45;4.77;;;2.70;;
14096;SDS011;7125;48.106;11.544;2023-08-06T04:10:12;3.17;;;2.97;;
14096;SDS011;7125;48.106;11.544;2023-08-06T04:12:39;2.63;;;2.43;;
14096;SDS011;7125;48.106;11.544;2023-08-06T04:15:07;3.55;;;2.95;;
14096;SDS011;7125;48.106;11.544;2023-08-06T04:17:34;3.27;;;2.70;;
14096;SDS011;7125;48.106;11.544;2023-08-06T04:20:01;2.55;;;2.35;;
14096;SDS011;7125;48.106;11.544;2023-08-06T04:22:29;2.40;;;2.20;;
14096;SDS011;7125;48.106;11.544;2023-08-06T04:24:57;3.47;;;3.08;;
14096;SDS011;7125;48.106;11.544;2023-08-06T04:27:24;4.88;;;2.95;;
14096;SDS011;7125;48.106;11.544;2023-08-06T04:29:51;2.47;;;2.28;;
14096;SDS011;7125;48.106;11.544;2023-08-06T04:32:18;4.15;;;2.70;;
14096;SDS011;7125;48.106;11.544;2023-08-06T04:34:49;2.80;;;2.60;;
14096;SDS011;7125;48.106;11.544;2023-08-06T04:37:16;2.60;;;2.30;;
14096;SDS011;7125;48.106;11.544;2023-08-06T04:39:43;3.42;;;2.65;;
14096;SDS011;7125;48.106;11.544;2023-08-06T04:42:11;3.05;;;2.65;;
14096;SDS011;7125;48.106;11.544;2023-08-06T04:44:38;2.97;;;2.60;;
14096;SDS011;7125;48.106;11.544;2023-08-06T04:47:05;2.50;;;2.28;;
14096;SDS011;7125;48.106;11.544;2023-08-06T04:49:32;2.73;;;2.53;;
14096;SDS011;7125;48.106;11.544;2023-08-06T04:51:59;3.70;;;3.05;;
14096;SDS011;7125;48.106;11.544;2023-08-06T04:54:26;4.18;;;2.80;;
14096;SDS011;7125;48.106;11.544;2023-08-06T04:56:53;2.83;;;2.63;;
14096;SDS011;7125;48.106;11.544;2023-08-06T04:59:21;2.80;;;2.60;;
14096;SDS011;7125;48.106;11.544;2023-08-06T05:01:48;2.63;;;2.40;;
14096;SDS011;7125;48.106;11.544;2023-08-06T05:04:15;2.67;;;2.42;;
14096;SDS011;7125;48.106;11.544;2023-08-06T05:06:42;4.55;;;2.70;;
14096;SDS011;7125;48.106;11.544;2023-08-06T05:09:09;5.22;;;2.70;;
14096;SDS011;7125;48.106;11.544;2023-08-06T05:11:36;2.97;;;2.70;;
14096;SDS011;7125;48.106;11.544;2023-08-06T05:14:03;4.82;;;3.50;;
14096;SDS011;7125;48.106;11.544;2023-08-06T05:16:31;3.30;;;2.70;;
14096;SDS011;7125;48.106;11.544;2023-08-06T05:18:58;2.97;;;2.45;;
14096;SDS011;7125;48.106;11.544;2023-08-06T05:21:25;2.28;;;2.08;;
14096;SDS011;7125;48.106;11.544;2023-08-06T05:23:52;3.47;;;2.25;;
14096;SDS011;7125;48.106;11.544;2023-08-06T05:26:19;3.55;;;2.63;;
14096;SDS011;7125;48.106;11.544;2023-08-06T05:28:46;6.37;;;2.73;;
14096;SDS011;7125;48.106;11.544;2023-08-06T05:31:13;3.22;;;2.92;;
14096;SDS011;7125;48.106;11.544;2023-08-06T05:33:41;3.35;;;3.05;;
14096;SDS011;7125;48.106;11.544;2023-08-06T05:36:08;2.90;;;2.40;;
14096;SDS011;7125;48.106;11.544;2023-08-06T05:38:35;2.15;;;1.95;;
14096;SDS011;7125;48.106;11.544;2023-08-06T05:41:02;4.18;;;2.47;;
14096;SDS011;7125;48.106;11.544;2023-08-06T05:43:29;2.50;;;2.30;;
14096;SDS011;7125;48.106;11.544;2023-08-06T05:45:56;1.87;;;1.77;;
14096;SDS011;7125;48.106;11.544;2023-08-06T05:48:23;3.47;;;2.90;;
14096;SDS011;7125;48.106;11.544;2023-08-06T05:50:51;4.90;;;2.80;;
14096;SDS011;7125;48.106;11.544;2023-08-06T05:53:18;2.67;;;2.22;;
14096;SDS011;7125;48.106;11.544;2023-08-06T05:55:45;2.97;;;2.40;;
14096;SDS011;7125;48.106;11.544;2023-08-06T05:58:12;3.75;;;2.92;;
14096;SDS011;7125;48.106;11.544;2023-08-06T06:00:39;2.80;;;2.60;;
14096;SDS011;7125;48.106;11.544;2023-08-06T06:03:06;2.55;;;2.35;;
14096;SDS011;7125;48.106;11.544;2023-08-06T06:05:33;2.97;;;2.63;;
14096;SDS011;7125;48.106;11.544;2023-08-06T06:08:01;2.58;;;2.38;;
14096;SDS011;7125;48.106;11.544;2023-08-06T06:10:28;3.22;;;2.85;;
14096;SDS011;7125;48.106;11.544;2023-08-06T06:12:55;2.60;;;2.40;;
14096;SDS011;7125;48.106;11.544;2023-08-06T06:15:22;2.50;;;2.30;;
14096;SDS011;7125;48.106;11.544;2023-08-06T06:17:49;2.63;;;2.00;;
14096;SDS011;7125;48.106;11.544;2023-08-06T06:20:16;3.25;;;2.58;;
14096;SDS011;7125;48.106;11.544;2023-08-06T06:22:43;2.40;;;2.20;;
14096;SDS011;7125;48.106;11.544;2023-08-06T06:25:12;2.03;;;1.92;;
14096;SDS011;7125;48.106;11.544;2023-08-06T06:27:39;3.40;;;2.45;;
14096;SDS011;7125;48.106;11.544;2023-08-06T06:30:06;3.20;;;2.10;;
14096;SDS011;7125;48.106;11.544;2023-08-06T06:32:34;1.70;;;1.60;;
14096;SDS011;7125;48.106;11.544;2023-08-06T06:35:01;1.83;;;1.73;;
14096;SDS011;7125;48.106;11.544;2023-08-06T06:37:28;4.05;;;2.13;;
14096;SDS011;7125;48.106;11.544;2023-08-06T06:39:55;2.67;;;2.28;;
14096;SDS011;7125;48.106;11.544;2023-08-06T06:42:23;2.58;;;2.38;;
14096;SDS011;7125;48.106;11.544;2023-08-06T06:44:56;2.50;;;2.28;;
14096;SDS011;7125;48.106;11.544;2023-08-06T06:47:23;3.92;;;2.22;;
14096;SDS011;7125;48.106;11.544;2023-08-06T06:49:50;1.83;;;1.70;;
14096;SDS011;7125;48.106;11.544;2023-08-06T06:52:17;2.17;;;1.98;;
14096;SDS011;7125;48.106;11.544;2023-08-06T06:54:44;2.55;;;2.10;;
14096;SDS011;7125;48.106;11.544;2023-08-06T06:57:11;1.90;;;1.60;;
14096;SDS011;7125;48.106;11.544;2023-08-06T06:59:40;1.77;;;1.65;;
14096;SDS011;7125;48.106;11.544;2023-08-06T07:02:07;1.70;;;1.60;;
14096;SDS011;7125;48.106;11.544;2023-08-06T07:04:34;2.97;;;2.28;;
14096;SDS011;7125;48.106;11.544;2023-08-06T07:07:00;3.22;;;1.92;;
14096;SDS011;7125;48.106;11.544;2023-08-06T07:09:27;1.80;;;1.52;;
14096;SDS011;7125;48.106;11.544;2023-08-06T07:11:54;3.17;;;2.72;;
14096;SDS011;7125;48.106;11.544;2023-08-06T07:14:21;0.98;;;0.88;;
14096;SDS011;7125;48.106;11.544;2023-08-06T07:16:50;3.38;;;0.90;;
14096;SDS011;7125;48.106;11.544;2023-08-06T07:19:17;1.23;;;1.05;;
14096;SDS011;7125;48.106;11.544;2023-08-06T07:21:45;1.00;;;0.73;;
14096;SDS011;7125;48.106;11.544;2023-08-06T07:24:12;1.48;;;1.20;;
14096;SDS011;7125;48.106;11.544;2023-08-06T07:26:39;2.05;;;1.10;;
14096;SDS011;7125;48.106;11.544;2023-08-06T07:29:06;1.05;;;0.88;;
14096;SDS011;7125;48.106;11.544;2023-08-06T07:31:33;1.98;;;1.17;;
14096;SDS011;7125;48.106;11.544;2023-08-06T07:34:01;2.08;;;0.90;;
14096;SDS011;7125;48.106;11.544;2023-08-06T07:36:28;2.47;;;1.02;;
14096;SDS011;7125;48.106;11.544;2023-08-06T07:38:55;3.33;;;0.85;;
14096;SDS011;7125;48.106;11.544;2023-08-06T07:41:22;2.90;;;1.08;;
14096;SDS011;7125;48.106;11.544;2023-08-06T07:43:49;2.38;;;1.45;;
14096;SDS011;7125;48.106;11.544;2023-08-06T07:46:16;1.23;;;1.00;;
14096;SDS011;7125;48.106;11.544;2023-08-06T07:48:42;3.15;;;1.05;;
14096;SDS011;7125;48.106;11.544;2023-08-06T07:51:11;4.50;;;1.45;;
14096;SDS011;7125;48.106;11.544;2023-08-06T07:53:38;2.97;;;1.20;;
14096;SDS011;7125;48.106;11.544;2023-08-06T07:56:05;1.67;;;1.20;;
14096;SDS011;7125;48.106;11.544;2023-08-06T07:58:32;1.85;;;1.08;;
14096;SDS011;7125;48.106;11.544;2023-08-06T08:00:58;2.97;;;1.08;;
14096;SDS011;7125;48.106;11.544;2023-08-06T08:03:25;1.50;;;1.20;;
14096;SDS011;7125;48.106;11.544;2023-08-06T08:05:54;3.20;;;1.20;;
14096;SDS011;7125;48.106;11.544;2023-08-06T08:08:24;2.60;;;1.25;;
14096;SDS011;7125;48.106;11.544;2023-08-06T08:10:51;2.55;;;1.33;;
14096;SDS011;7125;48.106;11.544;2023-08-06T08:13:20;1.30;;;0.88;;
14096;SDS011;7125;48.106;11.544;2023-08-06T08:15:47;1.48;;;1.38;;
14096;SDS011;7125;48.106;11.544;2023-08-06T08:18:14;0.90;;;0.90;;
14096;SDS011;7125;48.106;11.544;2023-08-06T08:20:41;3.38;;;0.93;;
14096;SDS011;7125;48.106;11.544;2023-08-06T08:23:08;3.90;;;0.77;;
14096;SDS011;7125;48.106;11.544;2023-08-06T08:25:36;3.70;;;0.80;;
14096;SDS011;7125;48.106;11.544;2023-08-06T08:28:03;1.55;;;0.60;;
14096;SDS011;7125;48.106;11.544;2023-08-06T08:30:30;1.40;;;0.65;;
14096;SDS011;7125;48.106;11.544;2023-08-06T08:32:57;4.05;;;0.90;;
14096;SDS011;7125;48.106;11.544;2023-08-06T08:35:24;0.77;;;0.55;;
14096;SDS011;7125;48.106;11.544;2023-08-06T08:37:51;0.63;;;0.30;;
14096;SDS011;7125;48.106;11.544;2023-08-06T08:40:19;1.13;;;1.02;;
14096;SDS011;7125;48.106;11.544;2023-08-06T08:42:49;2.03;;;0.50;;
14096;SDS011;7125;48.106;11.544;2023-08-06T08:45:17;2.97;;;1.27;;
14096;SDS011;7125;48.106;11.544;2023-08-06T08:47:46;0.80;;;0.40;;
14096;SDS011;7125;48.106;11.544;2023-08-06T08:50:13;1.95;;;0.57;;
14096;SDS011;7125;48.106;11.544;2023-08-06T08:52:40;0.30;;;0.30;;
14096;SDS011;7125;48.106;11.544;2023-08-06T08:55:10;0.65;;;0.50;;
14096;SDS011;7125;48.106;11.544;2023-08-06T08:57:40;1.13;;;0.38;;
14096;SDS011;7125;48.106;11.544;2023-08-06T09:00:09;1.00;;;0.47;;
14096;SDS011;7125;48.106;11.544;2023-08-06T09:02:37;0.77;;;0.40;;
14096;SDS011;7125;48.106;11.544;2023-08-06T09:05:05;0.32;;;0.32;;
14096;SDS011;7125;48.106;11.544;2023-08-06T09:07:34;0.30;;;0.30;;
14096;SDS011;7125;48.106;11.544;2023-08-06T09:10:05;0.85;;;0.30;;
14096;SDS011;7125;48.106;11.544;2023-08-06T09:12:36;1.65;;;0.30;;
14096;SDS011;7125;48.106;11.544;2023-08-06T09:15:03;1.40;;;0.20;;
14096;SDS011;7125;48.106;11.544;2023-08-06T09:17:32;1.52;;;0.20;;
14096;SDS011;7125;48.106;11.544;2023-08-06T09:19:59;0.22;;;0.22;;
14096;SDS011;7125;48.106;11.544;2023-08-06T09:22:34;0.20;;;0.20;;
14096;SDS011;7125;48.106;11.544;2023-08-06T09:25:01;0.30;;;0.30;;
14096;SDS011;7125;48.106;11.544;2023-08-06T09:27:35;0.17;;;0.17;;
14096;SDS011;7125;48.106;11.544;2023-08-06T09:30:03;0.93;;;0.30;;
14096;SDS011;7125;48.106;11.544;2023-08-06T09:35:16;0.52;;;0.35;;
14096;SDS011;7125;48.106;11.544;2023-08-06T09:37:44;0.22;;;0.20;;
14096;SDS011;7125;48.106;11.544;2023-08-06T09:40:26;0.20;;;0.20;;
14096;SDS011;7125;48.106;11.544;2023-08-06T09:42:54;2.78;;;0.30;;
14096;SDS011;7125;48.106;11.544;2023-08-06T09:45:22;0.45;;;0.30;;
14096;SDS011;7125;48.106;11.544;2023-08-06T09:47:50;0.10;;;0.10;;
14096;SDS011;7125;48.106;11.544;2023-08-06T09:50:22;0.30;;;0.30;;
14096;SDS011;7125;48.106;11.544;2023-08-06T09:52:54;0.35;;;0.15;;
14096;SDS011;7125;48.106;11.544;2023-08-06T09:55:22;1.40;;;0.20;;
14096;SDS011;7125;48.106;11.544;2023-08-06T09:57:51;2.95;;;0.40;;
14096;SDS011;7125;48.106;11.544;2023-08-06T10:00:19;0.25;;;0.10;;
14096;SDS011;7125;48.106;11.544;2023-08-06T10:02:46;0.10;;;0.10;;
14096;SDS011;7125;48.106;11.544;2023-08-06T10:05:16;0.55;;;0.30;;
14096;SDS011;7125;48.106;11.544;2023-08-06T10:07:44;0.10;;;0.10;;
14096;SDS011;7125;48.106;11.544;2023-08-06T10:10:12;0.80;;;0.30;;
14096;SDS011;7125;48.106;11.544;2023-08-06T10:12:40;0.20;;;0.10;;
14096;SDS011;7125;48.106;11.544;2023-08-06T10:15:13;1.75;;;0.20;;
14096;SDS011;7125;48.106;11.544;2023-08-06T10:17:42;0.88;;;0.20;;
14096;SDS011;7125;48.106;11.544;2023-08-06T10:20:11;0.63;;;0.20;;
14096;SDS011;7125;48.106;11.544;2023-08-06T10:22:43;0.85;;;0.30;;
14096;SDS011;7125;48.106;11.544;2023-08-06T10:25:10;0.20;;;0.10;;
14096;SDS011;7125;48.106;11.544;2023-08-06T10:27:53;0.40;;;0.17;;
14096;SDS011;7125;48.106;11.544;2023-08-06T10:30:22;0.57;;;0.10;;
14096;SDS011;7125;48.106;11.544;2023-08-06T10:32:50;0.20;;;0.20;;
14096;SDS011;7125;48.106;11.544;2023-08-06T10:35:27;3.72;;;0.10;;
14096;SDS011;7125;48.106;11.544;2023-08-06T10:38:07;0.30;;;0.13;;
14096;SDS011;7125;48.106;11.544;2023-08-06T10:40:36;1.73;;;0.25;;
14096;SDS011;7125;48.106;11.544;2023-08-06T10:43:05;6.25;;;0.20;;
14096;SDS011;7125;48.106;11.544;2023-08-06T10:45:34;0.15;;;0.10;;
14096;SDS011;7125;48.106;11.544;2023-08-06T10:48:02;0.10;;;0.10;;
14096;SDS011;7125;48.106;11.544;2023-08-06T10:50:29;0.22;;;0.10;;
14096;SDS011;7125;48.106;11.544;2023-08-06T10:52:57;0.28;;;0.20;;
14096;SDS011;7125;48.106;11.544;2023-08-06T10:55:31;0.80;;;0.45;;
14096;SDS011;7125;48.106;11.544;2023-08-06T10:57:58;0.05;;;0.05;;
14096;SDS011;7125;48.106;11.544;2023-08-06T11:00:25;0.60;;;0.20;;
14096;SDS011;7125;48.106;11.544;2023-08-06T11:02:52;0.88;;;0.47;;
14096;SDS011;7125;48.106;11.544;2023-08-06T11:05:20;0.32;;;0.20;;
14096;SDS011;7125;48.106;11.544;2023-08-06T11:07:47;0.25;;;0.10;;
14096;SDS011;7125;48.106;11.544;2023-08-06T11:10:16;0.43;;;0.10;;
14096;SDS011;7125;48.106;11.544;2023-08-06T11:12:44;0.57;;;0.10;;
14096;SDS011;7125;48.106;11.544;2023-08-06T11:15:11;0.47;;;0.10;;
14096;SDS011;7125;48.106;11.544;2023-08-06T11:17:39;0.10;;;0.10;;
14096;SDS011;7125;48.106;11.544;2023-08-06T11:20:10;0.10;;;0.10;;
14096;SDS011;7125;48.106;11.544;2023-08-06T11:22:38;0.30;;;0.20;;
14096;SDS011;7125;48.106;11.544;2023-08-06T11:25:06;0.20;;;0.20;;
14096;SDS011;7125;48.106;11.544;2023-08-06T11:27:33;0.25;;;0.10;;
14096;SDS011;7125;48.106;11.544;2023-08-06T11:30:02;0.10;;;0.10;;
14096;SDS011;7125;48.106;11.544;2023-08-06T11:32:29;0.08;;;0.08;;
14096;SDS011;7125;48.106;11.544;2023-08-06T11:34:58;0.10;;;0.10;;
14096;SDS011;7125;48.106;11.544;2023-08-06T11:37:25;0.35;;;0.20;;
14096;SDS011;7125;48.106;11.544;2023-08-06T11:39:53;1.38;;;0.65;;
14096;SDS011;7125;48.106;11.544;2023-08-06T11:42:21;2.70;;;0.25;;
14096;SDS011;7125;48.106;11.544;2023-08-06T11:44:49;0.10;;;0.10;;
14096;SDS011;7125;48.106;11.544;2023-08-06T11:47:17;3.92;;;0.25;;
14096;SDS011;7125;48.106;11.544;2023-08-06T11:49:44;0.35;;;0.30;;
14096;SDS011;7125;48.106;11.544;2023-08-06T11:52:19;0.47;;;0.20;;
14096;SDS011;7125;48.106;11.544;2023-08-06T11:54:59;0.20;;;0.10;;
14096;SDS011;7125;48.106;11.544;2023-08-06T11:57:29;0.10;;;0.10;;
14096;SDS011;7125;48.106;11.544;2023-08-06T11:59:58;0.35;;;0.20;;
14096;SDS011;7125;48.106;11.544;2023-08-06T12:02:39;0.45;;;0.30;;
14096;SDS011;7125;48.106;11.544;2023-08-06T12:05:10;0.28;;;0.10;;
14096;SDS011;7125;48.106;11.544;2023-08-06T12:07:38;0.10;;;0.10;;
14096;SDS011;7125;48.106;11.544;2023-08-06T12:10:08;0.35;;;0.20;;
14096;SDS011;7125;48.106;11.544;2023-08-06T12:12:36;4.03;;;0.20;;
14096;SDS011;7125;48.106;11.544;2023-08-06T12:15:04;0.10;;;0.10;;
14096;SDS011;7125;48.106;11.544;2023-08-06T12:17:32;0.20;;;0.20;;
14096;SDS011;7125;48.106;11.544;2023-08-06T12:20:01;2.05;;;0.15;;
14096;SDS011;7125;48.106;11.544;2023-08-06T12:22:29;1.73;;;0.17;;
14096;SDS011;7125;48.106;11.544;2023-08-06T12:25:00;0.43;;;0.17;;
14096;SDS011;7125;48.106;11.544;2023-08-06T12:27:27;0.20;;;0.20;;
14096;SDS011;7125;48.106;11.544;2023-08-06T12:29:55;0.10;;;0.10;;
14096;SDS011;7125;48.106;11.544;2023-08-06T12:32:21;0.22;;;0.20;;
14096;SDS011;7125;48.106;11.544;2023-08-06T12:34:48;0.10;;;0.10;;
14096;SDS011;7125;48.106;11.544;2023-08-06T12:37:17;0.20;;;0.20;;
14096;SDS011;7125;48.106;11.544;2023-08-06T12:39:44;0.17;;;0.15;;
14096;SDS011;7125;48.106;11.544;2023-08-06T12:42:10;0.10;;;0.10;;
14096;SDS011;7125;48.106;11.544;2023-08-06T12:44:37;0.10;;;0.10;;
14096;SDS011;7125;48.106;11.544;2023-08-06T12:47:04;0.10;;;0.10;;
14096;SDS011;7125;48.106;11.544;2023-08-06T12:49:31;0.43;;;0.30;;
14096;SDS011;7125;48.106;11.544;2023-08-06T12:51:59;1.10;;;0.25;;
14096;SDS011;7125;48.106;11.544;2023-08-06T12:54:28;0.10;;;0.10;;
14096;SDS011;7125;48.106;11.544;2023-08-06T12:57:01;0.25;;;0.20;;
14096;SDS011;7125;48.106;11.544;2023-08-06T12:59:27;0.22;;;0.17;;
14096;SDS011;7125;48.106;11.544;2023-08-06T13:01:56;0.32;;;0.20;;
14096;SDS011;7125;48.106;11.544;2023-08-06T13:04:23;0.20;;;0.20;;
14096;SDS011;7125;48.106;11.544;2023-08-06T13:06:50;0.17;;;0.17;;
14096;SDS011;7125;48.106;11.544;2023-08-06T13:09:17;0.10;;;0.10;;
14096;SDS011;7125;48.106;11.544;2023-08-06T13:11:46;0.10;;;0.10;;
14096;SDS011;7125;48.106;11.544;2023-08-06T13:14:15;0.15;;;0.15;;
14096;SDS011;7125;48.106;11.544;2023-08-06T13:16:42;0.20;;;0.20;;
14096;SDS011;7125;48.106;11.544;2023-08-06T13:19:10;2.33;;;0.30;;
14096;SDS011;7125;48.106;11.544;2023-08-06T13:21:57;0.73;;;0.40;;
14096;SDS011;7125;48.106;11.544;2023-08-06T13:24:25;3.05;;;0.10;;
14096;SDS011;7125;48.106;11.544;2023-08-06T13:26:53;0.10;;;0.10;;
14096;SDS011;7125;48.106;11.544;2023-08-06T13:29:20;0.20;;;0.10;;
14096;SDS011;7125;48.106;11.544;2023-08-06T13:31:48;0.57;;;0.10;;
14096;SDS011;7125;48.106;11.544;2023-08-06T13:34:14;0.70;;;0.10;;
14096;SDS011;7125;48.106;11.544;2023-08-06T13:36:42;0.28;;;0.13;;
14096;SDS011;7125;48.106;11.544;2023-08-06T13:39:09;1.70;;;0.43;;
14096;SDS011;7125;48.106;11.544;2023-08-06T13:41:37;0.10;;;0.10;;
14096;SDS011;7125;48.106;11.544;2023-08-06T13:44:06;0.10;;;0.10;;
14096;SDS011;7125;48.106;11.544;2023-08-06T13:46:33;0.13;;;0.13;;
14096;SDS011;7125;48.106;11.544;2023-08-06T13:49:00;1.00;;;0.20;;
14096;SDS011;7125;48.106;11.544;2023-08-06T13:51:26;0.38;;;0.10;;
14096;SDS011;7125;48.106;11.544;2023-08-06T13:53:53;0.10;;;0.10;;
14096;SDS011;7125;48.106;11.544;2023-08-06T13:56:22;0.32;;;0.20;;
14096;SDS011;7125;48.106;11.544;2023-08-06T13:58:49;0.10;;;0.10;;
14096;SDS011;7125;48.106;11.544;2023-08-06T14:01:18;0.30;;;0.17;;
14096;SDS011;7125;48.106;11.544;2023-08-06T14:03:45;0.10;;;0.10;;
14096;SDS011;7125;48.106;11.544;2023-08-06T14:06:11;0.73;;;0.30;;
14096;SDS011;7125;48.106;11.544;2023-08-06T14:08:38;0.40;;;0.40;;
14096;SDS011;7125;48.106;11.544;2023-08-06T14:11:08;0.57;;;0.17;;
14096;SDS011;7125;48.106;11.544;2023-08-06T14:13:35;0.10;;;0.10;;
14096;SDS011;7125;48.106;11.544;2023-08-06T14:16:03;0.25;;;0.20;;
14096;SDS011;7125;48.106;11.544;2023-08-06T14:18:31;1.92;;;0.20;;
14096;SDS011;7125;48.106;11.544;2023-08-06T14:20:59;0.10;;;0.10;;
14096;SDS011;7125;48.106;11.544;2023-08-06T14:23:26;0.20;;;0.20;;
14096;SDS011;7125;48.106;11.544;2023-08-06T14:25:53;0.85;;;0.30;;
14096;SDS011;7125;48.106;11.544;2023-08-06T14:28:20;0.30;;;0.30;;
14096;SDS011;7125;48.106;11.544;2023-08-06T14:30:47;0.35;;;0.28;;
14096;SDS011;7125;48.106;11.544;2023-08-06T14:33:14;0.30;;;0.10;;
14096;SDS011;7125;48.106;11.544;2023-08-06T14:35:42;0.30;;;0.20;;
14096;SDS011;7125;48.106;11.544;2023-08-06T14:38:09;0.30;;;0.28;;
14096;SDS011;7125;48.106;11.544;2023-08-06T14:40:36;0.70;;;0.40;;
14096;SDS011;7125;48.106;11.544;2023-08-06T14:43:04;0.22;;;0.20;;
14096;SDS011;7125;48.106;11.544;2023-08-06T14:45:32;0.32;;;0.32;;
14096;SDS011;7125;48.106;11.544;2023-08-06T14:47:58;0.43;;;0.20;;
14096;SDS011;7125;48.106;11.544;2023-08-06T14:50:25;0.20;;;0.20;;
14096;SDS011;7125;48.106;11.544;2023-08-06T14:52:53;0.25;;;0.25;;
14096;SDS011;7125;48.106;11.544;2023-08-06T14:55:24;1.93;;;0.53;;
14096;SDS011;7125;48.106;11.544;2023-08-06T14:57:51;0.75;;;0.30;;